sensor_id;sensor_type;location;lat;lon;timestamp;pressure;altitude;pressure_sealevel;temperature;humidity
79129;BME280;68529;43.286;23.360;2023-07-31T00:01:03;98714.31;;;24.18;62.99
79129;BME280;68529;43.286;23.360;2023-07-31T00:03:28;98697.75;;;24.22;62.97
79129;BME280;68529;43.286;23.360;2023-07-31T00:05:54;98695.06;;;24.22;63.03
79129;BME280;68529;43.286;23.360;2023-07-31T00:08:19;98690.00;;;24.19;63.04
79129;BME280;68529;43.286;23.360;2023-07-31T00:10:45;98686.47;;;24.19;62.99
79129;BME280;68529;43.286;23.360;2023-07-31T00:13:10;98696.06;;;24.21;63.16
79129;BME280;68529;43.286;23.360;2023-07-31T00:15:35;98684.63;;;24.19;62.51
79129;BME280;68529;43.286;23.360;2023-07-31T00:18:01;98688.31;;;24.18;62.81
79129;BME280;68529;43.286;23.360;2023-07-31T00:20:26;98691.00;;;24.18;62.84
79129;BME280;68529;43.286;23.360;2023-07-31T00:22:51;98682.41;;;24.15;63.16
79129;BME280;68529;43.286;23.360;2023-07-31T00:25:17;98679.03;;;24.13;62.81
79129;BME280;68529;43.286;23.360;2023-07-31T00:27:42;98683.25;;;24.15;62.75
79129;BME280;68529;43.286;23.360;2023-07-31T00:30:10;98685.41;;;24.12;62.82
79129;BME280;68529;43.286;23.360;2023-07-31T00:32:36;98676.78;;;24.08;62.83
79129;BME280;68529;43.286;23.360;2023-07-31T00:35:01;98679.59;;;24.07;62.95
79129;BME280;68529;43.286;23.360;2023-07-31T00:37:27;98678.22;;;24.03;62.98
79129;BME280;68529;43.286;23.360;2023-07-31T00:39:52;98677.66;;;23.99;63.26
79129;BME280;68529;43.286;23.360;2023-07-31T00:42:17;98678.56;;;23.90;63.42
79129;BME280;68529;43.286;23.360;2023-07-31T00:44:43;98672.38;;;23.90;63.22
79129;BME280;68529;43.286;23.360;2023-07-31T00:47:08;98675.88;;;23.90;63.33
79129;BME280;68529;43.286;23.360;2023-07-31T00:49:34;98680.44;;;23.90;63.49
79129;BME280;68529;43.286;23.360;2023-07-31T00:51:59;98673.19;;;23.90;63.39
79129;BME280;68529;43.286;23.360;2023-07-31T00:54:25;98666.59;;;23.85;63.45
79129;BME280;68529;43.286;23.360;2023-07-31T00:56:52;98659.88;;;23.81;63.83
79129;BME280;68529;43.286;23.360;2023-07-31T00:59:19;98657.00;;;23.82;63.92
79129;BME280;68529;43.286;23.360;2023-07-31T01:01:45;98664.09;;;23.83;63.52
79129;BME280;68529;43.286;23.360;2023-07-31T01:04:11;98654.63;;;23.79;63.20
79129;BME280;68529;43.286;23.360;2023-07-31T01:09:22;98669.06;;;23.78;63.15
79129;BME280;68529;43.286;23.360;2023-07-31T01:11:57;98666.81;;;23.73;63.49
79129;BME280;68529;43.286;23.360;2023-07-31T01:14:24;98664.59;;;23.69;63.76
79129;BME280;68529;43.286;23.360;2023-07-31T01:16:50;98669.94;;;23.69;63.54
79129;BME280;68529;43.286;23.360;2023-07-31T01:19:18;98660.50;;;23.65;63.57
79129;BME280;68529;43.286;23.360;2023-07-31T01:27:16;98671.66;;;23.70;63.78
79129;BME280;68529;43.286;23.360;2023-07-31T01:29:50;98667.00;;;23.62;63.62
79129;BME280;68529;43.286;23.360;2023-07-31T01:32:17;98670.53;;;23.63;64.18
79129;BME280;68529;43.286;23.360;2023-07-31T01:34:43;98667.56;;;23.66;63.91
79129;BME280;68529;43.286;23.360;2023-07-31T01:37:09;98669.78;;;23.70;63.69
79129;BME280;68529;43.286;23.360;2023-07-31T01:39:34;98665.94;;;23.73;63.58
79129;BME280;68529;43.286;23.360;2023-07-31T01:42:00;98673.69;;;23.76;63.40
79129;BME280;68529;43.286;23.360;2023-07-31T01:44:25;98674.94;;;23.82;63.11
79129;BME280;68529;43.286;23.360;2023-07-31T01:46:51;98668.50;;;23.74;63.34
79129;BME280;68529;43.286;23.360;2023-07-31T01:49:16;98655.78;;;23.76;63.06
79129;BME280;68529;43.286;23.360;2023-07-31T01:51:41;98661.44;;;23.73;63.44
79129;BME280;68529;43.286;23.360;2023-07-31T01:54:07;98656.94;;;23.74;63.31
79129;BME280;68529;43.286;23.360;2023-07-31T01:56:32;98653.25;;;23.75;63.06
79129;BME280;68529;43.286;23.360;2023-07-31T01:58:58;98654.63;;;23.79;63.12
79129;BME280;68529;43.286;23.360;2023-07-31T02:01:23;98648.84;;;23.84;63.01
79129;BME280;68529;43.286;23.360;2023-07-31T02:03:48;98652.22;;;23.86;62.75
79129;BME280;68529;43.286;23.360;2023-07-31T02:06:14;98649.22;;;23.89;62.79
79129;BME280;68529;43.286;23.360;2023-07-31T02:08:39;98653.06;;;23.86;62.67
79129;BME280;68529;43.286;23.360;2023-07-31T02:11:04;98650.38;;;23.86;63.05
79129;BME280;68529;43.286;23.360;2023-07-31T02:15:55;98641.44;;;23.68;62.92
79129;BME280;68529;43.286;23.360;2023-07-31T02:18:20;98648.19;;;23.72;62.73
79129;BME280;68529;43.286;23.360;2023-07-31T02:20:50;98649.25;;;23.79;63.00
79129;BME280;68529;43.286;23.360;2023-07-31T02:23:17;98652.13;;;23.77;62.66
79129;BME280;68529;43.286;23.360;2023-07-31T02:25:43;98655.09;;;23.74;62.81
79129;BME280;68529;43.286;23.360;2023-07-31T02:28:08;98661.00;;;23.78;62.79
79129;BME280;68529;43.286;23.360;2023-07-31T02:30:34;98665.06;;;23.82;62.85
79129;BME280;68529;43.286;23.360;2023-07-31T02:32:59;98672.13;;;23.83;62.83
79129;BME280;68529;43.286;23.360;2023-07-31T02:35:24;98663.53;;;23.80;62.39
79129;BME280;68529;43.286;23.360;2023-07-31T02:37:50;98671.84;;;23.86;62.45
79129;BME280;68529;43.286;23.360;2023-07-31T02:40:15;98674.34;;;23.88;62.49
79129;BME280;68529;43.286;23.360;2023-07-31T02:42:41;98690.31;;;23.89;62.48
79129;BME280;68529;43.286;23.360;2023-07-31T02:45:06;98690.16;;;23.91;62.60
79129;BME280;68529;43.286;23.360;2023-07-31T02:47:32;98679.41;;;23.91;62.44
79129;BME280;68529;43.286;23.360;2023-07-31T02:49:57;98683.13;;;23.90;62.72
79129;BME280;68529;43.286;23.360;2023-07-31T02:52:24;98693.69;;;23.91;62.61
79129;BME280;68529;43.286;23.360;2023-07-31T02:54:49;98698.19;;;23.91;62.49
79129;BME280;68529;43.286;23.360;2023-07-31T02:57:15;98691.84;;;23.92;62.36
79129;BME280;68529;43.286;23.360;2023-07-31T02:59:41;98694.38;;;23.93;62.32
79129;BME280;68529;43.286;23.360;2023-07-31T03:02:06;98693.50;;;23.93;62.55
79129;BME280;68529;43.286;23.360;2023-07-31T03:04:32;98687.63;;;23.89;62.68
79129;BME280;68529;43.286;23.360;2023-07-31T03:06:57;98693.00;;;23.89;62.63
79129;BME280;68529;43.286;23.360;2023-07-31T03:09:23;98702.88;;;23.89;62.42
79129;BME280;68529;43.286;23.360;2023-07-31T03:11:48;98698.06;;;23.92;62.46
79129;BME280;68529;43.286;23.360;2023-07-31T03:14:13;98697.34;;;23.90;62.06
79129;BME280;68529;43.286;23.360;2023-07-31T03:16:39;98710.06;;;23.88;61.84
79129;BME280;68529;43.286;23.360;2023-07-31T03:19:04;98706.53;;;23.88;61.84
79129;BME280;68529;43.286;23.360;2023-07-31T03:21:29;98701.25;;;23.78;61.37
79129;BME280;68529;43.286;23.360;2023-07-31T03:26:20;98706.84;;;23.85;61.64
79129;BME280;68529;43.286;23.360;2023-07-31T03:28:46;98712.19;;;23.85;61.45
79129;BME280;68529;43.286;23.360;2023-07-31T03:31:11;98713.50;;;23.81;61.63
79129;BME280;68529;43.286;23.360;2023-07-31T03:33:36;98711.38;;;23.84;61.63
79129;BME280;68529;43.286;23.360;2023-07-31T03:36:02;98711.38;;;23.84;61.56
79129;BME280;68529;43.286;23.360;2023-07-31T03:38:27;98724.63;;;23.86;61.55
79129;BME280;68529;43.286;23.360;2023-07-31T03:40:53;98720.13;;;23.86;61.56
79129;BME280;68529;43.286;23.360;2023-07-31T03:43:18;98726.47;;;23.85;61.64
79129;BME280;68529;43.286;23.360;2023-07-31T03:45:44;98726.63;;;23.84;61.49
79129;BME280;68529;43.286;23.360;2023-07-31T03:48:09;98727.16;;;23.87;61.15
79129;BME280;68529;43.286;23.360;2023-07-31T03:50:35;98730.84;;;23.86;61.81
79129;BME280;68529;43.286;23.360;2023-07-31T03:53:00;98732.69;;;23.86;61.85
79129;BME280;68529;43.286;23.360;2023-07-31T03:55:25;98739.59;;;23.88;61.44
79129;BME280;68529;43.286;23.360;2023-07-31T03:57:51;98734.22;;;23.88;61.47
79129;BME280;68529;43.286;23.360;2023-07-31T04:00:16;98734.50;;;23.85;61.63
79129;BME280;68529;43.286;23.360;2023-07-31T04:02:42;98732.00;;;23.84;61.79
79129;BME280;68529;43.286;23.360;2023-07-31T04:05:07;98732.84;;;23.84;61.86
79129;BME280;68529;43.286;23.360;2023-07-31T04:07:33;98739.88;;;23.85;61.71
79129;BME280;68529;43.286;23.360;2023-07-31T04:09:59;98735.34;;;23.86;61.70
79129;BME280;68529;43.286;23.360;2023-07-31T04:12:25;98738.03;;;23.86;62.00
79129;BME280;68529;43.286;23.360;2023-07-31T04:14:50;98742.25;;;23.88;61.89
79129;BME280;68529;43.286;23.360;2023-07-31T04:17:17;98745.41;;;23.84;61.96
79129;BME280;68529;43.286;23.360;2023-07-31T04:19:42;98748.63;;;23.87;62.31
79129;BME280;68529;43.286;23.360;2023-07-31T04:22:08;98743.66;;;23.92;61.84
79129;BME280;68529;43.286;23.360;2023-07-31T04:24:33;98751.25;;;23.97;61.45
79129;BME280;68529;43.286;23.360;2023-07-31T04:26:59;98749.44;;;23.97;61.69
79129;BME280;68529;43.286;23.360;2023-07-31T04:29:24;98743.59;;;24.02;61.64
79129;BME280;68529;43.286;23.360;2023-07-31T04:31:49;98752.91;;;24.07;61.71
79129;BME280;68529;43.286;23.360;2023-07-31T04:34:15;98750.72;;;24.20;61.46
79129;BME280;68529;43.286;23.360;2023-07-31T04:36:40;98747.88;;;24.31;61.53
79129;BME280;68529;43.286;23.360;2023-07-31T04:39:05;98744.97;;;24.43;60.88
79129;BME280;68529;43.286;23.360;2023-07-31T04:41:31;98754.16;;;24.58;60.63
79129;BME280;68529;43.286;23.360;2023-07-31T04:43:56;98750.94;;;24.72;60.53
79129;BME280;68529;43.286;23.360;2023-07-31T04:46:22;98748.13;;;24.91;60.29
79129;BME280;68529;43.286;23.360;2023-07-31T04:48:47;98744.25;;;25.11;60.27
79129;BME280;68529;43.286;23.360;2023-07-31T04:51:12;98742.22;;;25.31;59.82
79129;BME280;68529;43.286;23.360;2023-07-31T04:53:38;98739.66;;;25.47;59.30
79129;BME280;68529;43.286;23.360;2023-07-31T04:56:04;98750.00;;;25.60;59.37
79129;BME280;68529;43.286;23.360;2023-07-31T04:58:29;98753.25;;;25.71;59.60
79129;BME280;68529;43.286;23.360;2023-07-31T05:00:55;98751.31;;;25.81;59.42
79129;BME280;68529;43.286;23.360;2023-07-31T05:03:20;98748.56;;;25.73;59.10
79129;BME280;68529;43.286;23.360;2023-07-31T05:05:46;98761.13;;;25.65;59.32
79129;BME280;68529;43.286;23.360;2023-07-31T05:08:11;98766.06;;;25.77;57.80
79129;BME280;68529;43.286;23.360;2023-07-31T05:10:37;98760.25;;;25.90;57.58
79129;BME280;68529;43.286;23.360;2023-07-31T05:13:02;98761.50;;;26.03;57.45
79129;BME280;68529;43.286;23.360;2023-07-31T05:15:28;98759.13;;;26.00;56.13
79129;BME280;68529;43.286;23.360;2023-07-31T05:17:53;98756.09;;;26.03;55.77
79129;BME280;68529;43.286;23.360;2023-07-31T05:20:19;98758.22;;;26.18;55.69
79129;BME280;68529;43.286;23.360;2023-07-31T05:22:44;98756.72;;;26.23;54.17
79129;BME280;68529;43.286;23.360;2023-07-31T05:25:09;98748.00;;;26.37;54.30
79129;BME280;68529;43.286;23.360;2023-07-31T05:27:35;98752.75;;;26.51;54.00
79129;BME280;68529;43.286;23.360;2023-07-31T05:30:00;98765.22;;;26.60;53.18
79129;BME280;68529;43.286;23.360;2023-07-31T05:32:26;98768.44;;;26.64;53.21
79129;BME280;68529;43.286;23.360;2023-07-31T05:34:52;98760.88;;;26.76;53.13
79129;BME280;68529;43.286;23.360;2023-07-31T05:37:18;98760.59;;;26.87;52.76
79129;BME280;68529;43.286;23.360;2023-07-31T05:39:43;98762.75;;;26.91;51.72
79129;BME280;68529;43.286;23.360;2023-07-31T05:42:08;98759.75;;;26.94;51.03
79129;BME280;68529;43.286;23.360;2023-07-31T05:44:34;98761.78;;;27.00;51.10
79129;BME280;68529;43.286;23.360;2023-07-31T05:46:59;98770.19;;;27.05;50.96
79129;BME280;68529;43.286;23.360;2023-07-31T05:49:25;98767.34;;;27.07;51.23
79129;BME280;68529;43.286;23.360;2023-07-31T05:51:50;98771.03;;;26.98;50.35
79129;BME280;68529;43.286;23.360;2023-07-31T05:54:16;98778.97;;;26.99;49.99
79129;BME280;68529;43.286;23.360;2023-07-31T05:56:41;98773.56;;;26.91;49.73
79129;BME280;68529;43.286;23.360;2023-07-31T05:59:09;98784.66;;;26.80;49.52
79129;BME280;68529;43.286;23.360;2023-07-31T06:01:35;98781.59;;;26.75;49.78
79129;BME280;68529;43.286;23.360;2023-07-31T06:04:00;98784.13;;;26.69;48.99
79129;BME280;68529;43.286;23.360;2023-07-31T06:06:26;98784.50;;;26.82;49.32
79129;BME280;68529;43.286;23.360;2023-07-31T06:08:52;98786.22;;;26.91;48.75
79129;BME280;68529;43.286;23.360;2023-07-31T06:11:18;98778.97;;;27.07;49.46
79129;BME280;68529;43.286;23.360;2023-07-31T06:13:44;98790.44;;;27.09;49.19
79129;BME280;68529;43.286;23.360;2023-07-31T06:16:09;98785.53;;;27.21;49.03
79129;BME280;68529;43.286;23.360;2023-07-31T06:18:35;98790.28;;;27.27;48.22
79129;BME280;68529;43.286;23.360;2023-07-31T06:21:00;98796.31;;;27.37;47.61
79129;BME280;68529;43.286;23.360;2023-07-31T06:23:26;98799.72;;;27.55;48.93
79129;BME280;68529;43.286;23.360;2023-07-31T06:25:51;98811.34;;;27.72;47.51
79129;BME280;68529;43.286;23.360;2023-07-31T06:28:16;98789.03;;;27.78;47.66
79129;BME280;68529;43.286;23.360;2023-07-31T06:30:42;98791.00;;;27.92;48.43
79129;BME280;68529;43.286;23.360;2023-07-31T06:33:07;98778.50;;;28.07;47.67
79129;BME280;68529;43.286;23.360;2023-07-31T06:35:34;98783.03;;;28.15;46.12
79129;BME280;68529;43.286;23.360;2023-07-31T06:37:59;98784.03;;;28.22;46.69
79129;BME280;68529;43.286;23.360;2023-07-31T06:40:24;98780.50;;;28.21;45.71
79129;BME280;68529;43.286;23.360;2023-07-31T06:42:50;98789.91;;;28.25;45.80
79129;BME280;68529;43.286;23.360;2023-07-31T06:45:15;98787.84;;;28.36;46.85
79129;BME280;68529;43.286;23.360;2023-07-31T06:47:41;98789.00;;;28.41;45.45
79129;BME280;68529;43.286;23.360;2023-07-31T06:50:07;98782.09;;;28.39;45.08
79129;BME280;68529;43.286;23.360;2023-07-31T06:52:32;98787.16;;;28.42;45.52
79129;BME280;68529;43.286;23.360;2023-07-31T06:55:16;98776.19;;;28.35;45.23
79129;BME280;68529;43.286;23.360;2023-07-31T06:57:46;98782.22;;;28.45;44.99
79129;BME280;68529;43.286;23.360;2023-07-31T07:00:12;98781.69;;;28.50;44.77
79129;BME280;68529;43.286;23.360;2023-07-31T07:02:38;98776.75;;;28.61;44.29
79129;BME280;68529;43.286;23.360;2023-07-31T07:05:03;98787.16;;;28.42;44.21
79129;BME280;68529;43.286;23.360;2023-07-31T07:07:29;98791.00;;;28.47;44.70
79129;BME280;68529;43.286;23.360;2023-07-31T07:09:54;98775.69;;;28.70;44.89
79129;BME280;68529;43.286;23.360;2023-07-31T07:12:19;98780.69;;;28.81;43.67
79129;BME280;68529;43.286;23.360;2023-07-31T07:14:45;98789.25;;;28.54;44.43
79129;BME280;68529;43.286;23.360;2023-07-31T07:17:13;98787.91;;;28.27;44.16
79129;BME280;68529;43.286;23.360;2023-07-31T07:19:42;98779.56;;;28.37;44.78
79129;BME280;68529;43.286;23.360;2023-07-31T07:22:07;98777.22;;;28.65;44.98
79129;BME280;68529;43.286;23.360;2023-07-31T07:24:33;98782.31;;;28.91;44.03
79129;BME280;68529;43.286;23.360;2023-07-31T07:26:58;98781.09;;;28.70;42.73
79129;BME280;68529;43.286;23.360;2023-07-31T07:29:24;98784.91;;;28.45;43.43
79129;BME280;68529;43.286;23.360;2023-07-31T07:31:49;98792.78;;;28.24;43.41
79129;BME280;68529;43.286;23.360;2023-07-31T07:34:15;98786.31;;;28.41;44.44
79129;BME280;68529;43.286;23.360;2023-07-31T07:36:40;98774.88;;;28.70;44.41
79129;BME280;68529;43.286;23.360;2023-07-31T07:39:05;98791.78;;;28.64;44.16
79129;BME280;68529;43.286;23.360;2023-07-31T07:41:31;98792.81;;;28.55;43.35
79129;BME280;68529;43.286;23.360;2023-07-31T07:43:56;98779.66;;;28.82;43.33
79129;BME280;68529;43.286;23.360;2023-07-31T07:46:22;98786.22;;;29.11;43.55
79129;BME280;68529;43.286;23.360;2023-07-31T07:48:48;98785.88;;;29.36;42.27
79129;BME280;68529;43.286;23.360;2023-07-31T07:51:13;98790.75;;;29.56;42.04
79129;BME280;68529;43.286;23.360;2023-07-31T07:53:39;98793.50;;;29.70;42.61
79129;BME280;68529;43.286;23.360;2023-07-31T07:56:04;98787.22;;;29.55;43.21
79129;BME280;68529;43.286;23.360;2023-07-31T07:58:29;98798.19;;;29.39;41.95
79129;BME280;68529;43.286;23.360;2023-07-31T08:00:55;98796.50;;;29.38;42.48
79129;BME280;68529;43.286;23.360;2023-07-31T08:03:20;98792.94;;;29.23;42.38
79129;BME280;68529;43.286;23.360;2023-07-31T08:05:45;98803.47;;;29.10;42.26
79129;BME280;68529;43.286;23.360;2023-07-31T08:08:15;98800.00;;;29.24;42.87
79129;BME280;68529;43.286;23.360;2023-07-31T08:10:41;98797.56;;;29.52;42.82
79129;BME280;68529;43.286;23.360;2023-07-31T08:13:07;98797.34;;;29.76;42.76
79129;BME280;68529;43.286;23.360;2023-07-31T08:15:32;98798.59;;;29.65;42.70
79129;BME280;68529;43.286;23.360;2023-07-31T08:17:57;98804.97;;;29.72;42.01
79129;BME280;68529;43.286;23.360;2023-07-31T08:20:23;98804.66;;;29.90;42.19
79129;BME280;68529;43.286;23.360;2023-07-31T08:22:48;98804.28;;;30.08;41.63
79129;BME280;68529;43.286;23.360;2023-07-31T08:25:14;98801.56;;;30.22;41.67
79129;BME280;68529;43.286;23.360;2023-07-31T08:27:43;98803.78;;;30.04;41.72
79129;BME280;68529;43.286;23.360;2023-07-31T08:30:09;98799.97;;;29.98;41.61
79129;BME280;68529;43.286;23.360;2023-07-31T08:32:34;98802.59;;;30.07;41.21
79129;BME280;68529;43.286;23.360;2023-07-31T08:35:00;98791.84;;;30.28;41.56
79129;BME280;68529;43.286;23.360;2023-07-31T08:37:25;98793.06;;;30.40;41.56
79129;BME280;68529;43.286;23.360;2023-07-31T08:39:50;98792.03;;;30.41;40.88
79129;BME280;68529;43.286;23.360;2023-07-31T08:42:16;98794.50;;;30.57;41.13
79129;BME280;68529;43.286;23.360;2023-07-31T08:44:43;98793.75;;;30.63;40.59
79129;BME280;68529;43.286;23.360;2023-07-31T08:47:09;98798.69;;;30.74;40.36
79129;BME280;68529;43.286;23.360;2023-07-31T08:49:36;98790.31;;;30.90;39.87
79129;BME280;68529;43.286;23.360;2023-07-31T08:52:03;98792.19;;;31.04;39.39
79129;BME280;68529;43.286;23.360;2023-07-31T08:54:30;98787.00;;;31.09;39.14
79129;BME280;68529;43.286;23.360;2023-07-31T08:56:58;98799.00;;;31.22;39.46
79129;BME280;68529;43.286;23.360;2023-07-31T08:59:26;98789.50;;;31.32;39.37
79129;BME280;68529;43.286;23.360;2023-07-31T09:01:55;98788.69;;;31.38;38.76
79129;BME280;68529;43.286;23.360;2023-07-31T09:04:23;98790.41;;;31.39;37.78
79129;BME280;68529;43.286;23.360;2023-07-31T09:06:50;98788.78;;;31.45;38.82
79129;BME280;68529;43.286;23.360;2023-07-31T09:09:17;98785.75;;;31.54;39.21
79129;BME280;68529;43.286;23.360;2023-07-31T09:11:44;98787.66;;;31.60;38.31
79129;BME280;68529;43.286;23.360;2023-07-31T09:14:10;98782.00;;;31.34;38.11
79129;BME280;68529;43.286;23.360;2023-07-31T09:16:35;98775.06;;;31.04;38.40
79129;BME280;68529;43.286;23.360;2023-07-31T09:19:01;98780.69;;;30.88;38.60
79129;BME280;68529;43.286;23.360;2023-07-31T09:21:30;98785.72;;;30.91;38.00
79129;BME280;68529;43.286;23.360;2023-07-31T09:23:55;98779.88;;;31.08;37.53
79129;BME280;68529;43.286;23.360;2023-07-31T09:26:34;98787.63;;;31.33;37.75
79129;BME280;68529;43.286;23.360;2023-07-31T09:29:01;98782.78;;;31.49;37.93
79129;BME280;68529;43.286;23.360;2023-07-31T09:31:46;98775.84;;;31.75;38.51
79129;BME280;68529;43.286;23.360;2023-07-31T09:34:12;98783.53;;;31.64;38.07
79129;BME280;68529;43.286;23.360;2023-07-31T09:49:48;98766.56;;;31.90;37.82
79129;BME280;68529;43.286;23.360;2023-07-31T09:52:13;98775.06;;;31.53;37.25
79129;BME280;68529;43.286;23.360;2023-07-31T09:54:39;98780.03;;;31.70;37.62
79129;BME280;68529;43.286;23.360;2023-07-31T09:57:04;98776.38;;;31.91;36.42
79129;BME280;68529;43.286;23.360;2023-07-31T09:59:30;98772.09;;;32.03;36.46
79129;BME280;68529;43.286;23.360;2023-07-31T10:01:56;98766.13;;;32.21;36.30
79129;BME280;68529;43.286;23.360;2023-07-31T10:04:26;98763.06;;;32.37;36.39
79129;BME280;68529;43.286;23.360;2023-07-31T10:06:52;98760.59;;;32.49;36.24
79129;BME280;68529;43.286;23.360;2023-07-31T10:09:19;98762.25;;;32.43;35.73
79129;BME280;68529;43.286;23.360;2023-07-31T10:11:48;98763.38;;;32.62;35.58
79129;BME280;68529;43.286;23.360;2023-07-31T10:14:20;98758.56;;;32.57;34.85
79129;BME280;68529;43.286;23.360;2023-07-31T10:16:45;98764.69;;;32.25;34.86
79129;BME280;68529;43.286;23.360;2023-07-31T10:19:11;98762.53;;;32.07;34.82
79129;BME280;68529;43.286;23.360;2023-07-31T10:21:37;98767.03;;;32.35;34.66
79129;BME280;68529;43.286;23.360;2023-07-31T10:24:03;98764.66;;;32.18;34.86
79129;BME280;68529;43.286;23.360;2023-07-31T10:26:31;98760.75;;;31.93;34.86
79129;BME280;68529;43.286;23.360;2023-07-31T10:28:58;98753.53;;;32.13;35.23
79129;BME280;68529;43.286;23.360;2023-07-31T10:31:24;98743.81;;;32.39;35.31
79129;BME280;68529;43.286;23.360;2023-07-31T10:33:50;98744.56;;;32.60;35.45
79129;BME280;68529;43.286;23.360;2023-07-31T10:36:18;98748.56;;;32.71;35.08
79129;BME280;68529;43.286;23.360;2023-07-31T10:38:45;98740.66;;;32.82;35.54
79129;BME280;68529;43.286;23.360;2023-07-31T10:41:10;98738.16;;;32.94;35.20
79129;BME280;68529;43.286;23.360;2023-07-31T10:43:37;98738.56;;;33.04;34.41
79129;BME280;68529;43.286;23.360;2023-07-31T10:46:11;98730.81;;;33.01;33.72
79129;BME280;68529;43.286;23.360;2023-07-31T10:48:38;98742.75;;;33.00;33.87
79129;BME280;68529;43.286;23.360;2023-07-31T10:51:10;98731.44;;;33.03;34.38
79129;BME280;68529;43.286;23.360;2023-07-31T10:53:37;98736.06;;;32.96;34.49
79129;BME280;68529;43.286;23.360;2023-07-31T10:56:04;98735.22;;;33.02;34.95
79129;BME280;68529;43.286;23.360;2023-07-31T10:58:31;98740.47;;;33.17;34.51
79129;BME280;68529;43.286;23.360;2023-07-31T11:01:06;98739.88;;;33.15;33.74
79129;BME280;68529;43.286;23.360;2023-07-31T11:03:45;98736.72;;;33.11;33.72
79129;BME280;68529;43.286;23.360;2023-07-31T11:06:10;98743.41;;;33.09;33.34
79129;BME280;68529;43.286;23.360;2023-07-31T11:08:45;98745.94;;;33.10;33.25
79129;BME280;68529;43.286;23.360;2023-07-31T11:11:12;98728.13;;;33.14;32.69
79129;BME280;68529;43.286;23.360;2023-07-31T11:13:47;98732.75;;;33.14;33.52
79129;BME280;68529;43.286;23.360;2023-07-31T11:16:18;98725.66;;;33.19;33.11
79129;BME280;68529;43.286;23.360;2023-07-31T11:18:45;98719.13;;;33.20;33.18
79129;BME280;68529;43.286;23.360;2023-07-31T11:21:13;98722.47;;;33.22;32.54
79129;BME280;68529;43.286;23.360;2023-07-31T11:23:39;98725.19;;;33.22;31.98
79129;BME280;68529;43.286;23.360;2023-07-31T11:26:06;98733.59;;;33.21;31.37
79129;BME280;68529;43.286;23.360;2023-07-31T11:28:33;98731.06;;;33.26;31.61
79129;BME280;68529;43.286;23.360;2023-07-31T11:31:00;98722.28;;;33.24;31.56
79129;BME280;68529;43.286;23.360;2023-07-31T11:33:26;98710.53;;;33.23;32.42
79129;BME280;68529;43.286;23.360;2023-07-31T11:35:51;98716.00;;;33.23;31.99
79129;BME280;68529;43.286;23.360;2023-07-31T11:38:25;98726.47;;;33.26;32.57
79129;BME280;68529;43.286;23.360;2023-07-31T11:40:52;98717.44;;;33.26;32.32
79129;BME280;68529;43.286;23.360;2023-07-31T11:43:19;98726.66;;;33.31;32.65
79129;BME280;68529;43.286;23.360;2023-07-31T11:45:49;98716.81;;;33.37;32.59
79129;BME280;68529;43.286;23.360;2023-07-31T11:50:52;98704.69;;;33.33;32.15
79129;BME280;68529;43.286;23.360;2023-07-31T11:53:27;98716.59;;;33.25;32.05
79129;BME280;68529;43.286;23.360;2023-07-31T11:55:54;98703.44;;;33.09;31.83
79129;BME280;68529;43.286;23.360;2023-07-31T11:58:23;98699.63;;;32.91;32.18
79129;BME280;68529;43.286;23.360;2023-07-31T12:00:49;98702.13;;;32.86;32.70
79129;BME280;68529;43.286;23.360;2023-07-31T12:03:15;98697.72;;;32.84;32.41
79129;BME280;68529;43.286;23.360;2023-07-31T12:05:40;98704.84;;;32.92;32.17
79129;BME280;68529;43.286;23.360;2023-07-31T12:08:10;98696.47;;;33.00;32.78
79129;BME280;68529;43.286;23.360;2023-07-31T12:10:39;98695.03;;;33.04;32.08
79129;BME280;68529;43.286;23.360;2023-07-31T12:13:22;98690.22;;;33.06;32.13
79129;BME280;68529;43.286;23.360;2023-07-31T12:15:48;98687.91;;;33.03;31.80
79129;BME280;68529;43.286;23.360;2023-07-31T12:18:16;98689.56;;;32.98;32.09
79129;BME280;68529;43.286;23.360;2023-07-31T12:20:45;98680.34;;;32.72;31.63
79129;BME280;68529;43.286;23.360;2023-07-31T12:25:40;98671.56;;;32.77;32.61
79129;BME280;68529;43.286;23.360;2023-07-31T12:28:06;98676.59;;;32.80;32.67
79129;BME280;68529;43.286;23.360;2023-07-31T12:30:37;98666.53;;;32.80;33.22
79129;BME280;68529;43.286;23.360;2023-07-31T12:33:22;98665.69;;;32.73;32.51
79129;BME280;68529;43.286;23.360;2023-07-31T12:35:48;98659.81;;;32.57;33.15
79129;BME280;68529;43.286;23.360;2023-07-31T12:38:14;98661.66;;;32.43;33.24
79129;BME280;68529;43.286;23.360;2023-07-31T12:40:40;98663.69;;;32.28;33.53
79129;BME280;68529;43.286;23.360;2023-07-31T12:43:06;98659.28;;;32.20;33.27
79129;BME280;68529;43.286;23.360;2023-07-31T12:45:33;98657.16;;;32.09;32.52
79129;BME280;68529;43.286;23.360;2023-07-31T12:47:59;98663.84;;;32.07;32.80
79129;BME280;68529;43.286;23.360;2023-07-31T12:50:25;98658.00;;;32.16;33.65
79129;BME280;68529;43.286;23.360;2023-07-31T12:52:52;98654.06;;;32.25;33.01
79129;BME280;68529;43.286;23.360;2023-07-31T12:55:18;98664.75;;;32.34;32.43
79129;BME280;68529;43.286;23.360;2023-07-31T12:57:44;98661.63;;;32.37;32.67
79129;BME280;68529;43.286;23.360;2023-07-31T13:00:09;98665.41;;;32.42;33.22
79129;BME280;68529;43.286;23.360;2023-07-31T13:02:35;98656.63;;;32.40;32.96
79129;BME280;68529;43.286;23.360;2023-07-31T13:05:00;98653.88;;;32.34;32.96
79129;BME280;68529;43.286;23.360;2023-07-31T13:07:26;98657.63;;;32.26;33.40
79129;BME280;68529;43.286;23.360;2023-07-31T13:09:51;98654.69;;;32.27;34.10
79129;BME280;68529;43.286;23.360;2023-07-31T13:12:17;98653.44;;;32.23;34.26
79129;BME280;68529;43.286;23.360;2023-07-31T13:14:43;98653.44;;;32.23;34.32
79129;BME280;68529;43.286;23.360;2023-07-31T13:17:08;98650.47;;;32.12;34.42